NowCast ZoneCast Warnings/Advisories Hourly Track Special Radar
Punta Gorda, Charlotte County Airport, United States  Lat: 26.92N, Lon: 81.99W
ICAO Used: KPGD
Current Conditions
Updated: 8:53 AM EST MON APR 21 2014
Sun & Moon Information:
Partly Cloudy
Partly Cloudy
Temp: 69°F
Humidity: 68%
Wind Speed: N8.1MPH(7KT)
Barometer: 30.10 in.
Dewpoint: 58°F
Heat Index: 69°F
Wind Chill: 69°F
Civil Twilight: 5:33 AM EST Moon Phase:
Waning Crescent Moon
Waning Crescent Moon
Sunrise: 5:57 AM EST
Sunset: 6:55 PM EST
Civil Twilight: 7:19 PM EST
Forecast for Punta Gorda, Charlotte County Airport, FL, United States:
(Forecast based on TAF for )
0700 PM EST SUN APR 20 2014
  
MORNING AFTERNOON EVENING OVERNIGHT
Partly Cloudy Partly Cloudy Partly Cloudy Partly Cloudy
Partly
Cloudy
Partly
Cloudy
Partly
Cloudy
Partly
Cloudy
TAF based forecast:
Dated: 0700 PM EST SUN APR 20 2014
Morning...Turning partly cloudy with winds from the northeast at 9 mph.
Afternoon...Partly cloudy with winds from the northeast at 9 mph.
Evening...Partly cloudy with winds from the north at 9 mph.
Overnight...Partly cloudy with winds from the north at 9 mph.
Original Encoded TAF:
Dated: 0700 PM EST SUN APR 20 2014
KPGD 211137Z 2112/2212 01005KT P6SM SCT025 
     TEMPO 2112/2114 BKN025 
     FM211400 04008KT P6SM SCT250 
     FM211700 35008KT P6SM SCT040 
     FM220200 05003KT P6SM SCT035 SCT250